EDT,Max TemperatureF,Mean TemperatureF,Min TemperatureF,Max Dew PointF,MeanDew PointF,Min DewpointF,Max Humidity, Mean Humidity, Min Humidity, Max Sea Level PressureIn, Mean Sea Level PressureIn, Min Sea Level PressureIn, Max VisibilityMiles, Mean VisibilityMiles, Min VisibilityMiles, Max Wind SpeedMPH, Mean Wind SpeedMPH, Max Gust SpeedMPH,PrecipitationIn, CloudCover, Events, WindDirDegrees
2013-8-1,78,70,63,67,63,53,96,81,60,29.97,29.92,29.88,10,7,2,13,7,,0.00,5,Rain-Thunderstorm,282
2013-8-2,73,64,54,67,60,51,94,84,68,29.99,29.93,29.86,10,8,2,16,6,23,0.76,5,Rain-Thunderstorm,215
2013-8-3,81,72,64,65,62,56,100,81,44,30.01,29.97,29.92,10,6,0,12,6,,0.47,5,Fog-Rain,308
2013-8-4,77,65,55,56,55,52,93,67,44,30.15,30.10,30.02,10,10,10,13,6,20,0.00,1,,336
2013-8-5,75,64,55,62,57,53,93,74,50,30.11,30.05,29.96,10,10,10,8,3,,0.00,2,,176
2013-8-6,79,70,62,66,62,59,90,78,60,29.97,29.94,29.90,10,10,9,13,7,,0.03,6,Rain,166
2013-8-7,82,72,64,72,69,62,94,85,72,29.93,29.89,29.85,10,8,4,13,6,20,0.00,5,Thunderstorm,184
2013-8-8,73,70,68,70,68,65,100,90,81,29.99,29.93,29.88,10,6,0,15,5,,0.04,6,Fog-Rain,32
2013-8-9,80,72,66,66,60,54,93,70,46,30.01,29.96,29.92,10,10,6,10,5,,0.03,3,Rain,8
2013-8-10,82,72,63,66,63,57,97,78,54,30.09,30.06,30.01,10,10,6,12,3,,0.00,3,,84
2013-8-11,82,72,62,63,59,57,93,68,48,30.10,30.07,30.03,10,10,9,8,4,,0.00,2,,33
2013-8-12,82,72,61,70,65,59,97,81,56,30.06,29.94,29.84,10,7,0,17,4,43,1.22,4,Fog-Rain-Thunderstorm,203
2013-8-13,72,64,55,65,56,47,100,75,47,30.04,29.94,29.82,10,10,5,15,8,22,0.01,3,,327
2013-8-14,71,58,48,52,48,45,93,70,45,30.17,30.13,30.06,10,10,10,8,5,,0.00,2,,346
2013-8-15,71,58,46,55,50,44,97,71,47,30.18,30.15,30.11,10,10,7,6,2,,0.00,0,,198
2013-8-16,75,65,55,56,54,51,89,68,46,30.18,30.15,30.12,10,10,8,8,2,,0.00,0,,101
2013-8-17,78,66,55,61,56,52,93,70,54,30.23,30.19,30.15,10,10,9,14,4,20,0.00,0,,55
2013-8-18,80,68,57,60,57,52,100,73,40,30.21,30.15,30.10,10,8,2,10,3,,0.00,0,,85
2013-8-19,82,68,55,64,59,53,100,79,45,30.15,30.10,30.04,10,7,0,9,2,,0.00,1,Fog,211
2013-8-20,84,70,57,67,62,56,93,73,47,30.16,30.12,30.08,10,9,6,6,3,,0.00,0,,187
2013-8-21,82,72,61,68,64,58,93,78,60,30.15,30.10,30.03,10,8,1,12,5,,0.02,1,Rain-Thunderstorm,171
2013-8-22,81,72,64,72,67,61,96,87,74,30.06,30.04,29.99,10,8,0,20,8,30,0.79,5,Fog-Rain-Thunderstorm,263
2013-8-23,81,72,63,66,63,55,94,76,43,30.17,30.09,30.03,10,8,4,13,7,17,0.00,4,Rain,15
2013-8-24,81,68,57,59,56,54,90,65,42,30.30,30.25,30.18,10,10,10,12,5,,0.00,0,,81
2013-8-25,84,72,59,63,59,55,87,68,41,30.31,30.25,30.19,10,10,10,13,6,,0.00,0,,183
2013-8-26,86,73,62,70,64,57,87,70,56,30.21,30.11,30.01,10,10,10,14,8,23,0.00,0,,233
2013-8-27,84,78,72,75,71,67,90,81,69,30.03,29.96,29.88,10,8,4,14,7,,0.01,2,Rain,227
2013-8-28,86,76,68,74,71,67,96,79,69,30.00,29.88,29.80,10,9,0,15,9,,0.07,4,Fog-Rain-Thunderstorm,303
2013-8-29,86,74,64,70,67,64,100,89,55,30.08,30.01,29.97,10,4,0,9,2,,0.01,4,Fog,22
2013-8-30,87,74,62,71,66,63,100,84,49,30.00,29.93,29.77,10,6,0,12,4,,0.00,1,Fog,200
2013-8-31,84,74,64,73,69,62,94,83,65,29.88,29.80,29.75,10,8,0,23,8,28,0.85,6,Fog-Rain-Thunderstorm,260